Time;durP1;ratioP1;P1;durP2;ratioP2;P2;SDS_P1;SDS_P2;PMS_P1;PMS_P2;Temp;Humidity;BMP_temperature;BMP_pressure;BME280_temperature;BME280_humidity;BME280_pressure;Samples;Min_cycle;Max_cycle;Signal;HPM_P1;HPM_P2
2023/07/07 00:00:01;;;;;;;0.30;0.30;;;26.80;73.30;;;27.24;58.09;95291.81;5096301;28;20549;-38
2023/07/07 00:02:33;;;;;;;0.30;0.30;;;26.80;73.30;;;27.22;57.93;95294.78;5096025;28;20225;-38
2023/07/07 00:05:01;;;;;;;0.30;0.30;;;26.80;73.40;;;27.22;58.26;95293.97;5095545;28;20240;-40
2023/07/07 00:07:28;;;;;;;0.30;0.30;;;26.80;73.40;;;27.21;57.87;95297.75;5094909;28;20208;-39
2023/07/07 00:09:55;;;;;;;0.30;0.30;;;26.80;73.50;;;27.19;58.34;95291.88;5096391;28;20203;-38
2023/07/07 00:12:22;;;;;;;0.30;0.30;;;26.80;73.50;;;27.17;58.13;95298.34;5095863;28;20195;-39
2023/07/07 00:14:50;;;;;;;0.30;0.30;;;26.80;73.50;;;27.16;58.62;95301.31;5095772;28;20658;-38
2023/07/07 00:17:17;;;;;;;0.30;0.30;;;26.80;73.60;;;27.16;58.63;95306.72;5095580;28;20243;-38
2023/07/07 00:19:45;;;;;;;0.30;0.30;;;26.80;73.60;;;27.15;58.10;95310.50;5095705;28;20253;-38
2023/07/07 00:22:12;;;;;;;0.30;0.30;;;26.70;73.60;;;27.12;58.59;95309.19;5095073;28;20312;-38
2023/07/07 00:24:40;;;;;;;0.30;0.30;;;26.70;73.70;;;27.12;58.80;95319.13;5094480;28;20227;-40
2023/07/07 00:27:07;;;;;;;0.30;0.30;;;26.70;73.70;;;27.11;58.77;95315.66;5094447;28;20235;-39
2023/07/07 00:29:34;;;;;;;0.30;0.30;;;26.70;73.80;;;27.11;58.60;95314.81;5095550;28;20200;-38
2023/07/07 00:32:01;;;;;;;0.32;0.32;;;26.70;73.80;;;27.09;58.89;95317.81;5095529;28;20200;-39
2023/07/07 00:34:29;;;;;;;0.30;0.30;;;26.70;73.80;;;27.10;58.88;95321.31;5095498;28;20278;-39
2023/07/07 00:36:56;;;;;;;0.30;0.30;;;26.70;73.90;;;27.07;58.67;95324.59;5094386;28;20576;-43
2023/07/07 00:39:23;;;;;;;0.40;0.40;;;26.70;73.90;;;27.07;59.04;95321.88;5095413;28;20227;-39
2023/07/07 00:41:50;;;;;;;0.40;0.40;;;26.70;73.90;;;27.06;58.73;95322.97;5094792;28;20493;-41
2023/07/07 00:44:18;;;;;;;0.30;0.30;;;26.70;74.00;;;27.05;58.87;95324.06;5095511;28;20192;-41
2023/07/07 00:46:45;;;;;;;0.30;0.30;;;26.70;74.00;;;27.03;58.79;95321.66;5094173;28;20193;-41
2023/07/07 00:49:20;;;;;;;0.20;0.20;;;26.70;74.00;;;27.03;58.94;95328.94;5095499;28;20282;-39
2023/07/07 00:51:56;;;;;;;0.30;0.30;;;26.70;74.30;;;27.00;58.99;95325.72;5095794;28;20184;-40
2023/07/07 00:54:31;;;;;;;0.30;0.30;;;26.60;74.00;;;26.99;58.79;95321.44;5094648;28;20183;-40
2023/07/07 00:56:59;;;;;;;0.30;0.30;;;26.70;74.50;;;26.98;59.07;95324.41;5094738;28;20596;-38
2023/07/07 00:59:34;;;;;;;0.30;0.30;;;26.60;74.00;;;26.97;59.45;95320.13;5094156;28;20579;-38
2023/07/07 01:02:24;;;;;;;0.30;0.30;;;26.60;74.20;;;26.95;59.14;95324.97;5095174;28;20200;-38
2023/07/07 01:05:00;;;;;;;0.40;0.40;;;26.60;74.20;;;26.94;59.59;95326.06;5094482;28;20206;-38
2023/07/07 01:07:42;;;;;;;0.30;0.30;;;26.60;74.30;;;26.92;59.15;95328.25;5094039;28;20182;-38
2023/07/07 01:10:10;;;;;;;0.30;0.30;;;26.60;74.30;;;26.91;59.42;95326.66;5094504;28;20267;-38
2023/07/07 01:12:37;;;;;;;0.30;0.30;;;26.60;74.20;;;26.91;58.87;95326.66;5095002;28;20199;-38
2023/07/07 01:15:07;;;;;;;0.30;0.30;;;26.60;74.20;;;26.90;59.64;95330.41;5094981;28;20662;-38
2023/07/07 01:17:59;;;;;;;0.30;0.30;;;26.60;74.20;;;26.88;59.04;95329.88;5094207;28;20537;-38
2023/07/07 01:20:45;;;;;;;0.30;0.30;;;26.60;74.40;;;26.86;59.11;95326.72;5095254;28;20189;-38
2023/07/07 01:23:31;;;;;;;0.30;0.30;;;26.60;74.40;;;26.84;59.26;95333.16;5095101;28;20199;-38
2023/07/07 01:26:19;;;;;;;0.35;0.35;;;26.60;74.30;;;26.82;59.43;95323.78;5093684;28;20232;-38
2023/07/07 01:29:27;;;;;;;0.30;0.30;;;26.50;74.40;;;26.80;59.26;95332.13;5077198;28;20200;-37
2023/07/07 01:32:01;;;;;;;0.30;0.30;;;26.50;74.40;;;26.79;59.51;95330.53;5095156;28;20208;-38
2023/07/07 01:34:28;;;;;;;0.30;0.30;;;26.50;74.40;;;26.79;59.45;95329.72;5094009;28;20183;-38
2023/07/07 01:36:55;;;;;;;0.30;0.30;;;26.50;74.30;;;26.78;59.85;95326.25;5096506;28;20237;-38
2023/07/07 01:39:25;;;;;;;0.30;0.30;;;26.50;74.40;;;26.79;59.54;95332.41;5097801;28;20214;-38
2023/07/07 01:41:54;;;;;;;0.30;0.30;;;26.50;74.40;;;26.79;59.84;95340.47;5098338;28;20195;-38
2023/07/07 01:44:39;;;;;;;0.30;0.30;;;26.50;74.60;;;26.77;59.76;95335.41;5098003;28;20287;-38
2023/07/07 01:47:18;;;;;;;0.30;0.30;;;26.50;74.70;;;26.76;59.96;95339.16;5098791;28;20567;-38
2023/07/07 01:50:25;;;;;;;0.30;0.30;;;26.50;74.70;;;26.73;59.97;95334.31;5098887;28;20225;-39
2023/07/07 01:53:21;;;;;;;0.30;0.30;;;26.40;74.60;;;26.71;59.51;95330.31;5097594;28;20208;-38
2023/07/07 01:55:55;;;;;;;0.30;0.30;;;26.40;74.60;;;26.71;59.74;95333.00;5080784;28;20239;-38
2023/07/07 01:58:24;;;;;;;0.30;0.30;;;26.50;74.60;;;26.71;59.95;95336.50;5098247;28;20270;-38
2023/07/07 02:00:53;;;;;;;0.30;0.30;;;26.40;74.60;;;26.71;60.05;95336.50;5097412;28;20541;-38
2023/07/07 02:03:21;;;;;;;0.30;0.30;;;26.40;74.60;;;26.72;60.27;95339.97;5080705;28;20244;-38
2023/07/07 02:05:48;;;;;;;0.30;0.30;;;26.40;74.60;;;26.72;59.91;95348.06;5098473;28;20214;-39
2023/07/07 02:08:15;;;;;;;0.40;0.40;;;26.40;74.70;;;26.70;59.94;95345.66;5097120;28;20231;-39
2023/07/07 02:10:43;;;;;;;0.30;0.30;;;26.40;74.70;;;26.70;59.79;95345.66;5114249;27;20208;-38
2023/07/07 02:13:10;;;;;;;0.40;0.40;;;26.40;74.70;;;26.69;59.88;95344.84;5097843;28;20200;-40
2023/07/07 02:15:38;;;;;;;0.30;0.30;;;26.40;74.70;;;26.70;59.91;95348.34;5097132;28;20217;-38
2023/07/07 02:18:05;;;;;;;0.30;0.30;;;26.40;74.80;;;26.69;60.05;95349.44;5080187;28;20197;-38
2023/07/07 02:20:32;;;;;;;0.30;0.30;;;26.40;74.80;;;26.69;59.79;95352.13;5114855;28;20520;-38
2023/07/07 02:23:00;;;;;;;0.40;0.40;;;26.40;74.90;;;26.68;60.43;95350.50;5114033;28;20199;-39
2023/07/07 02:25:29;;;;;;;0.30;0.30;;;26.40;74.80;;;26.68;60.41;95345.13;5097666;28;20222;-39
2023/07/07 02:27:56;;;;;;;0.40;0.40;;;26.40;74.90;;;26.67;60.51;95354.28;5097296;28;20276;-42
2023/07/07 02:30:25;;;;;;;0.40;0.40;;;26.40;75.00;;;26.67;59.91;95356.97;5097770;28;20195;-39
2023/07/07 02:32:52;;;;;;;0.30;0.30;;;26.40;75.00;;;26.66;60.53;95360.78;5096786;28;20214;-40
2023/07/07 02:35:19;;;;;;;0.30;0.30;;;26.40;75.00;;;26.64;60.21;95352.97;5098013;28;20189;-40
2023/07/07 02:37:46;;;;;;;0.30;0.30;;;26.40;75.00;;;26.64;60.52;95358.34;5096630;28;20246;-41
2023/07/07 02:40:15;;;;;;;0.40;0.40;;;26.40;75.00;;;26.61;60.01;95353.56;5097657;28;20280;-41
2023/07/07 02:42:42;;;;;;;0.30;0.30;;;26.40;75.00;;;26.64;60.60;95360.25;5097538;28;20202;-39
2023/07/07 02:45:09;;;;;;;0.40;0.40;;;26.40;75.00;;;26.63;60.13;95364.81;5097461;28;20213;-39
2023/07/07 02:47:36;;;;;;;0.50;0.50;;;26.30;75.00;;;26.62;60.41;95365.91;5096475;28;20580;-39
2023/07/07 02:50:04;;;;;;;0.30;0.30;;;26.30;75.00;;;26.63;60.37;95364.03;5097866;28;20200;-37
2023/07/07 02:52:32;;;;;;;0.38;0.38;;;26.30;75.00;;;26.61;60.42;95369.69;5113417;28;20532;-38
2023/07/07 02:54:59;;;;;;;0.30;0.30;;;26.30;75.00;;;26.61;60.76;95371.56;5096388;28;20612;-38
2023/07/07 02:57:26;;;;;;;0.30;0.30;;;26.30;75.00;;;26.60;60.57;95364.56;5097212;28;20540;-38
2023/07/07 02:59:53;;;;;;;0.30;0.30;;;26.30;75.00;;;26.60;60.59;95369.94;5097418;28;20271;-38
2023/07/07 03:02:20;;;;;;;0.35;0.35;;;26.30;75.10;;;26.60;60.28;95378.03;5096573;28;20207;-40
2023/07/07 03:04:47;;;;;;;0.40;0.40;;;26.30;75.10;;;26.59;60.16;95379.13;5097059;28;20509;-37
2023/07/07 03:07:15;;;;;;;0.30;0.30;;;26.30;75.10;;;26.58;60.55;95377.53;5097158;28;20228;-46
2023/07/07 03:09:43;;;;;;;0.20;0.20;;;26.30;75.20;;;26.57;60.65;95373.22;5096206;28;20199;-41
2023/07/07 03:12:12;;;;;;;0.30;0.30;;;26.30;75.20;;;26.57;60.48;95378.59;5079755;28;20216;-41
2023/07/07 03:14:40;;;;;;;0.30;0.30;;;26.30;75.20;;;26.56;60.62;95380.47;5096950;28;20596;-37
2023/07/07 03:17:09;;;;;;;0.30;0.30;;;26.30;75.30;;;26.54;60.69;95377.28;5095932;28;20687;-38
2023/07/07 03:19:42;;;;;;;0.30;0.30;;;26.30;75.20;;;26.54;60.52;95379.97;5095768;28;20714;-38
2023/07/07 03:22:18;;;;;;;0.30;0.30;;;26.30;75.30;;;26.54;60.50;95385.34;5095847;28;20245;-38
2023/07/07 03:24:52;;;;;;;0.40;0.40;;;26.30;75.30;;;26.52;60.97;95388.34;5096157;28;20680;-37
2023/07/07 03:27:35;;;;;;;0.30;0.30;;;26.30;75.30;;;26.52;60.78;95390.22;5096980;28;20216;-38
2023/07/07 03:30:02;;;;;;;0.30;0.30;;;26.30;75.30;;;26.52;60.58;95384.81;5095641;28;20595;-41
2023/07/07 03:32:40;;;;;;;0.30;0.30;;;26.30;75.30;;;26.50;61.14;95393.19;5112699;28;20208;-40
2023/07/07 03:35:08;;;;;;;0.40;0.40;;;26.30;75.40;;;26.51;61.25;95394.78;5096696;28;20200;-39
2023/07/07 03:37:37;;;;;;;0.30;0.30;;;26.30;75.40;;;26.51;60.96;95404.72;5095600;28;20288;-40
2023/07/07 03:40:06;;;;;;;0.30;0.30;;;26.20;75.40;;;26.50;61.01;95401.25;5095361;28;20216;-41
2023/07/07 03:42:36;;;;;;;0.30;0.30;;;26.20;75.50;;;26.49;61.31;95402.34;5112438;28;20201;-38
2023/07/07 03:45:06;;;;;;;0.32;0.32;;;26.20;75.40;;;26.49;60.88;95405.03;5095325;28;20309;-39
2023/07/07 03:47:34;;;;;;;0.30;0.30;;;26.30;75.50;;;26.48;61.19;95408.78;5096801;28;20190;-39
2023/07/07 03:50:03;;;;;;;0.30;0.30;;;26.20;75.40;;;26.48;61.42;95411.47;5078482;28;20265;-40
2023/07/07 03:52:33;;;;;;;0.38;0.38;;;26.20;75.50;;;26.48;60.82;95410.69;5096083;28;20608;-38
2023/07/07 03:55:02;;;;;;;0.30;0.30;;;26.20;75.50;;;26.47;61.30;95411.78;5095235;28;20196;-38
2023/07/07 03:57:30;;;;;;;0.30;0.30;;;26.20;75.50;;;26.48;61.35;95408.00;5095182;28;20287;-38
2023/07/07 03:59:57;;;;;;;0.30;0.30;;;26.20;75.50;;;26.48;61.11;95406.09;5095481;28;20230;-40
2023/07/07 04:02:24;;;;;;;0.30;0.30;;;26.20;75.60;;;26.48;61.34;95408.00;5095105;28;20231;-38
2023/07/07 04:04:52;;;;;;;0.30;0.30;;;26.20;75.60;;;26.48;61.25;95408.00;5095020;28;20626;-38
2023/07/07 04:07:20;;;;;;;0.32;0.32;;;26.20;75.60;;;26.47;61.00;95404.50;5095253;28;20674;-40
2023/07/07 04:09:47;;;;;;;0.30;0.30;;;26.20;75.50;;;26.47;61.29;95411.78;5095913;28;20192;-43
2023/07/07 04:12:14;;;;;;;0.30;0.30;;;26.20;75.60;;;26.46;61.54;95410.16;5095854;28;20618;-41
2023/07/07 04:14:41;;;;;;;0.28;0.28;;;26.20;75.70;;;26.47;61.51;95420.63;5094841;28;20204;-44
2023/07/07 04:17:08;;;;;;;0.20;0.20;;;26.20;75.70;;;26.47;61.67;95414.47;5094806;28;20230;-45
2023/07/07 04:19:35;;;;;;;0.40;0.40;;;26.20;75.70;;;26.47;61.40;95415.25;5095804;28;20223;-43
2023/07/07 04:22:02;;;;;;;0.28;0.28;;;26.20;75.70;;;26.43;61.67;95419.59;5094763;28;20300;-38
2023/07/07 04:24:29;;;;;;;0.30;0.30;;;26.20;75.80;;;26.47;61.23;95425.22;5094910;28;20594;-39
2023/07/07 04:26:56;;;;;;;0.47;0.47;;;26.20;75.70;;;26.47;61.35;95426.00;5095241;28;20224;-42
2023/07/07 04:29:23;;;;;;;0.30;0.30;;;26.30;75.80;;;26.46;61.06;95429.78;5095433;28;20251;-42
2023/07/07 04:31:50;;;;;;;0.32;0.32;;;26.20;75.80;;;26.47;61.43;95427.91;5095767;28;20199;-45
2023/07/07 04:34:17;;;;;;;0.38;0.38;;;26.20;75.80;;;26.47;61.40;95431.38;5095857;28;20214;-42
2023/07/07 04:36:45;;;;;;;0.30;0.30;;;26.20;75.80;;;26.48;61.43;95429.53;5096052;28;20205;-41
2023/07/07 04:39:13;;;;;;;0.30;0.30;;;26.20;75.80;;;26.48;61.76;95429.53;5095269;28;20216;-40
2023/07/07 04:41:40;;;;;;;0.30;0.30;;;26.20;75.90;;;26.47;61.66;95435.97;5095622;28;20249;-39
2023/07/07 04:44:07;;;;;;;0.35;0.35;;;26.20;75.90;;;26.47;61.29;95436.78;5095592;28;20625;-40
2023/07/07 04:46:37;;;;;;;0.40;0.40;;;26.20;75.90;;;26.48;61.76;95446.44;5095522;28;20672;-39
2023/07/07 04:49:07;;;;;;;0.30;0.30;;;26.20;75.90;;;26.47;61.79;95444.84;5095168;28;20196;-39
2023/07/07 04:51:41;;;;;;;0.30;0.30;;;26.20;75.90;;;26.48;61.93;95448.34;5095209;28;20197;-41
2023/07/07 04:54:13;;;;;;;0.30;0.30;;;26.20;76.00;;;26.48;61.68;95453.72;5095843;28;20196;-41
2023/07/07 04:56:40;;;;;;;0.30;0.30;;;26.20;76.00;;;26.47;61.83;95452.91;5077738;28;20181;-38
2023/07/07 04:59:08;;;;;;;0.30;0.30;;;26.20;75.90;;;26.48;61.58;95453.72;5094192;28;20699;-38
2023/07/07 05:01:36;;;;;;;0.30;0.30;;;26.20;75.90;;;26.49;61.42;95464.19;5095201;28;20215;-40
2023/07/07 05:04:05;;;;;;;0.30;0.30;;;26.20;76.00;;;26.50;62.06;95467.69;5094549;28;20245;-38
2023/07/07 05:06:39;;;;;;;0.30;0.30;;;26.20;76.00;;;26.49;61.41;95472.28;5094963;28;20548;-37
2023/07/07 05:09:07;;;;;;;0.30;0.30;;;26.20;76.00;;;26.51;61.45;95474.69;5094965;28;20278;-40
2023/07/07 05:11:35;;;;;;;0.40;0.40;;;26.20;76.00;;;26.52;62.11;95470.91;5097025;28;20194;-40
2023/07/07 05:14:03;;;;;;;0.40;0.40;;;26.30;76.10;;;26.51;61.54;95470.13;5099293;28;20202;-42
2023/07/07 05:16:34;;;;;;;0.30;0.30;;;26.30;76.10;;;26.51;61.81;95471.97;5099476;28;20212;-39
2023/07/07 05:19:02;;;;;;;0.30;0.30;;;26.30;76.20;;;26.53;61.71;95472.53;5099269;28;20200;-44
2023/07/07 05:21:30;;;;;;;0.30;0.30;;;26.30;76.10;;;26.53;61.56;95467.94;5099095;28;20278;-40
2023/07/07 05:23:57;;;;;;;0.32;0.32;;;26.30;76.20;;;26.54;61.65;95463.38;5099101;28;20273;-40
2023/07/07 05:26:29;;;;;;;0.30;0.30;;;26.30;76.10;;;26.55;62.17;95477.63;5098768;28;20334;-42
2023/07/07 05:29:04;;;;;;;0.30;0.30;;;26.30;76.10;;;26.55;62.19;95467.66;5098511;28;20271;-40
2023/07/07 05:31:31;;;;;;;0.30;0.30;;;26.30;76.30;;;26.56;62.21;95473.84;5098060;28;20219;-41
2023/07/07 05:33:59;;;;;;;0.30;0.30;;;26.30;76.20;;;26.56;61.89;95471.94;5098895;28;20686;-41
2023/07/07 05:36:27;;;;;;;0.30;0.30;;;26.30;76.10;;;26.58;62.24;95482.44;5098868;28;20217;-41
2023/07/07 05:38:54;;;;;;;0.30;0.30;;;26.30;76.20;;;26.56;62.15;95474.63;5097816;28;20230;-39
2023/07/07 05:41:21;;;;;;;0.30;0.30;;;26.30;76.20;;;26.58;61.83;95480.53;5098769;28;20205;-40
2023/07/07 05:43:49;;;;;;;0.30;0.30;;;26.30;76.20;;;26.59;61.61;95482.16;5099844;28;20188;-40
2023/07/07 05:46:16;;;;;;;0.30;0.30;;;26.30;76.20;;;26.60;62.03;95480.25;5099091;28;20218;-38
2023/07/07 05:48:44;;;;;;;0.30;0.30;;;26.30;76.30;;;26.60;62.00;95483.78;5098778;28;20278;-42
2023/07/07 05:51:14;;;;;;;0.30;0.30;;;26.30;76.20;;;26.62;62.22;95480.78;5099166;28;20194;-40
2023/07/07 05:53:43;;;;;;;0.40;0.40;;;26.30;76.30;;;26.61;62.22;95484.56;5099170;28;20259;-41
2023/07/07 05:56:28;;;;;;;0.30;0.30;;;26.40;76.40;;;26.61;62.03;95481.88;5098465;28;20670;-43
2023/07/07 05:58:56;;;;;;;0.50;0.50;;;26.30;76.40;;;26.63;62.28;95485.09;5097424;28;20268;-40
2023/07/07 06:01:23;;;;;;;0.30;0.30;;;26.30;76.30;;;26.65;62.02;95488.31;5098366;28;20641;-43
2023/07/07 06:03:50;;;;;;;0.30;0.30;;;26.40;76.40;;;26.65;61.93;95491.00;5098317;28;20569;-40
2023/07/07 06:06:18;;;;;;;0.30;0.30;;;26.40;76.40;;;26.66;62.16;95492.63;5098730;28;20220;-42
2023/07/07 06:08:45;;;;;;;0.40;0.40;;;26.40;76.40;;;26.66;62.25;95498.78;5098286;28;20639;-43
2023/07/07 06:11:12;;;;;;;0.30;0.30;;;26.40;76.50;;;26.67;62.07;95502.28;5098209;28;20200;-45
2023/07/07 06:13:39;;;;;;;0.40;0.40;;;26.40;76.40;;;26.68;62.33;95502.00;5098300;28;20196;-43
2023/07/07 06:16:07;;;;;;;0.30;0.30;;;26.40;76.50;;;26.71;61.81;95499.81;5098704;28;20207;-40
2023/07/07 06:18:34;;;;;;;0.30;0.30;;;26.40;76.50;;;26.70;62.29;95507.09;5098591;28;20209;-39
2023/07/07 06:21:02;;;;;;;0.30;0.30;;;26.40;76.50;;;26.71;61.81;95506.03;5097885;28;20199;-40
2023/07/07 06:23:32;;;;;;;0.30;0.30;;;26.40;76.50;;;26.73;61.89;95505.75;5097796;28;20190;-39
2023/07/07 06:25:59;;;;;;;0.30;0.30;;;26.40;76.60;;;26.74;62.14;95507.34;5096788;28;20244;-39
2023/07/07 06:28:26;;;;;;;0.30;0.30;;;26.40;76.50;;;26.74;61.74;95507.34;5097136;28;20273;-39
2023/07/07 06:30:53;;;;;;;0.22;0.22;;;26.40;76.50;;;26.75;62.10;95509.00;5096834;28;20224;-39
2023/07/07 06:33:21;;;;;;;0.30;0.30;;;26.40;76.60;;;26.76;62.40;95510.59;5097648;28;20261;-39
2023/07/07 06:35:49;;;;;;;0.38;0.38;;;26.40;76.60;;;26.77;62.05;95512.19;5097993;28;20196;-39
2023/07/07 06:38:17;;;;;;;0.30;0.30;;;26.50;76.60;;;26.78;62.12;95514.63;5097719;28;20257;-41
2023/07/07 06:40:47;;;;;;;0.30;0.30;;;26.50;76.60;;;26.80;61.79;95507.06;5097435;28;20196;-40
2023/07/07 06:43:18;;;;;;;0.30;0.30;;;26.50;76.70;;;26.79;62.30;95513.53;5097378;28;20184;-40
2023/07/07 06:45:49;;;;;;;0.30;0.30;;;26.50;76.60;;;26.79;62.35;95513.53;5097468;28;20185;-41
2023/07/07 06:48:16;;;;;;;0.30;0.30;;;26.50;76.60;;;26.82;61.88;95520.25;5097226;28;20174;-38
2023/07/07 06:50:43;;;;;;;0.40;0.40;;;26.50;76.60;;;26.82;62.27;95518.34;5097298;28;20283;-42
2023/07/07 06:53:10;;;;;;;0.30;0.30;;;26.50;76.50;;;26.84;61.67;95516.19;5097666;28;20207;-40
2023/07/07 06:55:38;;;;;;;0.30;0.30;;;26.50;76.50;;;26.84;62.58;95526.97;5097580;28;20582;-39
2023/07/07 06:58:06;;;;;;;0.30;0.30;;;26.50;76.50;;;26.86;61.99;95518.59;5097579;28;20237;-40
2023/07/07 07:00:33;;;;;;;0.30;0.30;;;26.50;76.50;;;26.86;62.17;95515.91;5097136;28;20204;-39
2023/07/07 07:03:00;;;;;;;0.30;0.30;;;26.50;76.50;;;26.88;61.74;95523.69;5096665;28;20279;-42
2023/07/07 07:05:27;;;;;;;0.30;0.30;;;26.50;76.40;;;26.89;61.72;95525.31;5097115;28;20563;-40
2023/07/07 07:07:54;;;;;;;0.30;0.30;;;26.60;76.50;;;26.90;61.90;95521.53;5097059;28;20220;-42
2023/07/07 07:10:21;;;;;;;0.40;0.40;;;26.50;76.40;;;26.90;62.31;95521.53;5097276;28;20205;-40
2023/07/07 07:12:49;;;;;;;0.30;0.30;;;26.60;76.50;;;26.92;62.30;95527.44;5097469;28;20193;-39
2023/07/07 07:15:16;;;;;;;0.30;0.30;;;26.60;76.40;;;26.93;61.71;95532.53;5096885;28;20688;-40
2023/07/07 07:17:43;;;;;;;0.30;0.30;;;26.60;76.40;;;26.94;61.62;95530.63;5097164;28;20195;-40
2023/07/07 07:20:11;;;;;;;0.32;0.32;;;26.60;76.40;;;26.95;62.18;95532.25;5096857;28;20261;-40
2023/07/07 07:22:39;;;;;;;0.30;0.30;;;26.60;76.50;;;26.95;62.17;95530.38;5095840;28;20625;-40
2023/07/07 07:25:08;;;;;;;0.30;0.30;;;26.60;76.50;;;26.97;62.25;95535.47;5096769;28;20236;-41
2023/07/07 07:27:37;;;;;;;0.30;0.30;;;26.60;76.50;;;26.99;62.25;95530.63;5096525;28;20644;-44
2023/07/07 07:30:07;;;;;;;0.30;0.30;;;26.60;76.50;;;26.99;61.57;95538.69;5096780;28;20207;-45
2023/07/07 07:32:35;;;;;;;0.30;0.30;;;26.60;76.40;;;27.00;62.34;95532.19;5096896;28;20649;-41
2023/07/07 07:35:02;;;;;;;0.30;0.30;;;26.60;76.40;;;27.01;62.13;95536.50;5094914;28;20358;-41
2023/07/07 07:37:29;;;;;;;0.30;0.30;;;26.60;76.50;;;27.03;62.16;95536.25;5097011;28;20207;-42
2023/07/07 07:39:56;;;;;;;0.30;0.30;;;26.70;76.50;;;27.04;62.11;95537.81;5096391;28;20197;-41
2023/07/07 07:42:24;;;;;;;0.30;0.30;;;26.70;76.50;;;27.04;62.18;95541.34;5096472;28;20190;-41
2023/07/07 07:44:51;;;;;;;0.30;0.30;;;26.70;76.50;;;27.05;62.10;95540.25;5095467;28;20194;-45
2023/07/07 07:47:19;;;;;;;0.30;0.30;;;26.70;76.50;;;27.07;62.14;95537.28;5096465;28;20217;-40
2023/07/07 07:49:48;;;;;;;0.20;0.20;;;26.70;76.50;;;27.08;62.03;95544.28;5096686;28;20200;-43
2023/07/07 07:52:16;;;;;;;0.32;0.32;;;26.70;76.50;;;27.09;61.65;95541.28;5096267;28;20269;-40
2023/07/07 07:54:43;;;;;;;0.30;0.30;;;26.70;76.50;;;27.11;62.11;95543.69;5096502;28;20224;-42
2023/07/07 07:57:11;;;;;;;0.30;0.30;;;26.70;76.50;;;27.12;61.67;95539.94;5096425;28;20202;-41
2023/07/07 07:59:38;;;;;;;0.22;0.22;;;26.70;77.40;;;27.12;62.14;95534.53;5095979;28;20251;-38
2023/07/07 08:02:10;;;;;;;0.30;0.30;;;26.70;76.50;;;27.12;62.33;95546.13;5096093;28;20495;-44
2023/07/07 08:04:37;;;;;;;0.30;0.30;;;26.70;76.50;;;27.13;61.96;95541.53;5096453;28;20203;-47
2023/07/07 08:07:05;;;;;;;0.30;0.30;;;26.80;76.50;;;27.16;61.64;95551.75;5095388;28;20227;-39
2023/07/07 08:09:32;;;;;;;0.30;0.30;;;26.80;76.50;;;27.16;61.69;95547.16;5095969;28;20236;-40
2023/07/07 08:12:01;;;;;;;0.30;0.30;;;26.80;76.50;;;27.17;62.06;95547.94;5095650;28;20189;-39
2023/07/07 08:14:31;;;;;;;0.30;0.30;;;26.80;76.50;;;27.19;62.04;95558.47;5096119;28;20197;-40
2023/07/07 08:17:11;;;;;;;0.30;0.30;;;26.80;76.50;;;27.19;62.21;95558.47;5095878;28;20212;-41
2023/07/07 08:19:42;;;;;;;0.30;0.30;;;26.80;76.50;;;27.20;61.81;95544.72;5095719;28;20180;-40
2023/07/07 08:22:17;;;;;;;0.30;0.30;;;26.80;76.50;;;27.22;62.10;95547.13;5095036;28;20182;-39
2023/07/07 08:24:48;;;;;;;0.30;0.30;;;26.80;76.50;;;27.23;61.65;95548.72;5095974;28;20230;-40
2023/07/07 08:27:17;;;;;;;0.20;0.20;;;26.80;76.50;;;27.24;62.24;95550.34;5095450;28;20327;-40
2023/07/07 08:29:48;;;;;;;0.30;0.30;;;26.80;76.40;;;27.25;62.24;95543.88;5095696;28;20673;-40
2023/07/07 08:32:23;;;;;;;0.30;0.30;;;26.80;76.50;;;27.26;61.94;95542.78;5095791;28;20214;-40
2023/07/07 08:34:54;;;;;;;0.40;0.40;;;26.80;76.50;;;27.25;61.69;95552.75;5094952;28;20194;-40
2023/07/07 08:37:26;;;;;;;0.25;0.25;;;26.90;76.60;;;27.27;61.75;95553.28;5095486;28;20200;-40
2023/07/07 08:39:53;;;;;;;0.30;0.30;;;26.90;76.60;;;27.29;61.69;95550.28;5095307;28;20189;-41
2023/07/07 08:42:36;;;;;;;0.30;0.30;;;26.80;76.50;;;27.30;62.21;95549.19;5095572;28;20229;-40
2023/07/07 08:45:14;;;;;;;0.20;0.20;;;26.90;76.60;;;27.29;61.62;95545.72;5095580;28;20577;-41
2023/07/07 08:48:16;;;;;;;0.35;0.35;;;26.90;76.50;;;27.30;62.10;95543.81;5095296;28;20295;-40
2023/07/07 08:50:51;;;;;;;0.40;0.40;;;26.90;76.50;;;27.31;61.70;95548.91;5095289;28;20189;-41
2023/07/07 08:53:39;;;;;;;0.20;0.20;;;26.90;76.50;;;27.32;61.95;95539.75;5095531;28;20188;-43
2023/07/07 08:56:26;;;;;;;0.30;0.30;;;26.90;76.50;;;27.32;61.67;95538.97;5095540;28;20219;-41
2023/07/07 08:59:26;;;;;;;0.20;0.20;;;26.90;76.60;;;27.33;62.22;95543.25;5094341;28;20182;-40
2023/07/07 09:02:44;;;;;;;0.40;0.40;;;26.90;76.50;;;27.32;62.16;95545.13;5079317;28;20190;-46
2023/07/07 09:05:36;;;;;;;0.30;0.30;;;26.90;76.50;;;27.33;62.12;95551.31;5094563;28;20269;-39
2023/07/07 09:08:17;;;;;;;0.20;0.20;;;26.90;76.50;;;27.36;62.09;95547.28;5095006;28;20527;-39
2023/07/07 09:11:20;;;;;;;0.20;0.20;;;27.00;76.60;;;27.35;62.04;95549.16;5095321;28;20552;-38
2023/07/07 09:13:49;;;;;;;0.20;0.20;;;27.00;76.60;;;27.38;61.93;95540.53;5089560;28;20213;-39
2023/07/07 09:16:25;;;;;;;0.20;0.20;;;27.00;76.60;;;27.40;61.91;95542.91;5094380;28;20194;-39
2023/07/07 09:19:06;;;;;;;0.30;0.30;;;27.00;76.60;;;27.41;61.56;95542.66;5094437;28;20191;-38
2023/07/07 09:21:48;;;;;;;0.30;0.30;;;27.00;76.60;;;27.43;62.08;95547.78;5094833;28;20197;-39
2023/07/07 09:24:27;;;;;;;0.30;0.30;;;27.00;76.60;;;27.45;61.51;95545.59;5094992;28;20241;-38
2023/07/07 09:27:02;;;;;;;0.32;0.32;;;27.00;76.60;;;27.46;62.09;95549.91;5094766;28;20244;-39
2023/07/07 09:29:31;;;;;;;0.30;0.30;;;27.00;76.60;;;27.47;61.44;95546.13;5077673;28;20589;-39
2023/07/07 09:32:02;;;;;;;0.28;0.28;;;27.00;76.50;;;27.49;61.69;95549.34;5094891;28;20200;-42
2023/07/07 09:34:32;;;;;;;0.22;0.22;;;27.00;76.60;;;27.51;61.93;95543.66;5095147;28;20207;-42
2023/07/07 09:37:21;;;;;;;0.40;0.40;;;27.00;76.60;;;27.52;61.91;95553.34;5094221;28;20293;-42
2023/07/07 09:40:03;;;;;;;0.30;0.30;;;27.00;76.50;;;27.53;61.42;95550.38;5095129;28;20581;-42
2023/07/07 09:43:12;;;;;;;0.20;0.20;;;27.10;76.50;;;27.52;61.57;95550.66;5094614;28;20208;-42
2023/07/07 09:46:08;;;;;;;0.30;0.30;;;27.10;76.60;;;27.53;62.07;95549.56;5095332;28;20251;-40
2023/07/07 09:49:16;;;;;;;0.30;0.30;;;27.10;76.50;;;27.52;61.53;95542.56;5094669;28;20277;-42
2023/07/07 09:51:57;;;;;;;0.30;0.30;;;27.00;76.50;;;27.55;62.07;95539.28;5093803;28;20209;-41
2023/07/07 09:54:28;;;;;;;0.40;0.40;;;27.10;76.50;;;27.57;62.00;95539.81;5094953;28;20182;-43
2023/07/07 09:57:05;;;;;;;0.30;0.30;;;27.10;76.50;;;27.59;61.95;95548.44;5077926;28;20562;-40
2023/07/07 09:59:41;;;;;;;0.30;0.30;;;27.10;77.30;;;27.60;61.71;95539.25;5097618;28;20184;-40
2023/07/07 10:02:21;;;;;;;0.30;0.30;;;27.10;76.50;;;27.62;61.79;95543.28;5097583;28;20184;-39
2023/07/07 10:04:58;;;;;;;0.30;0.30;;;27.10;76.50;;;27.65;62.03;95541.91;5080820;28;20270;-39
2023/07/07 10:07:33;;;;;;;0.30;0.30;;;27.20;76.60;;;27.66;61.47;95538.13;5098260;28;20550;-40
2023/07/07 10:10:04;;;;;;;0.30;0.30;;;27.20;76.60;;;27.68;61.35;95535.94;5098247;28;20542;-39
2023/07/07 10:12:31;;;;;;;0.30;0.30;;;27.20;76.60;;;27.70;61.34;95538.34;5098367;28;20183;-39
2023/07/07 10:14:59;;;;;;;0.30;0.30;;;27.20;76.50;;;27.72;61.86;95536.97;5097309;28;20200;-40
2023/07/07 10:17:49;;;;;;;0.30;0.30;;;27.20;76.50;;;27.71;61.24;95540.75;5097822;28;20279;-42
2023/07/07 10:20:16;;;;;;;0.30;0.30;;;27.20;76.50;;;27.75;61.80;95539.09;5098390;28;20189;-40
2023/07/07 10:22:43;;;;;;;0.30;0.30;;;27.30;76.50;;;27.77;62.01;95536.91;5097857;28;20623;-39
2023/07/07 10:25:16;;;;;;;0.20;0.20;;;27.20;76.50;;;27.77;61.17;95528.84;5097960;28;20218;-41
2023/07/07 10:27:53;;;;;;;0.30;0.30;;;27.30;76.50;;;27.80;61.86;95538.25;5096859;28;20241;-42
2023/07/07 10:30:21;;;;;;;0.30;0.30;;;27.30;76.50;;;27.82;61.79;95544.16;5097256;28;20629;-39
2023/07/07 10:32:51;;;;;;;0.30;0.30;;;27.30;76.50;;;27.84;61.44;95536.56;5096698;28;20189;-40
2023/07/07 10:35:24;;;;;;;0.30;0.30;;;27.40;76.50;;;27.86;61.31;95533.59;5097746;28;20200;-40
2023/07/07 10:37:51;;;;;;;0.30;0.30;;;27.30;76.50;;;27.88;61.30;95536.78;5097776;28;20195;-40